<?xml version="1.0" encoding="UTF-8"?>
<gpx xmlns="http://www.topografix.com/GPX/1/1" xmlns:xsi="http://www.w3.org/2001/XMLSchema-instance" version="1.1" xsi:schemaLocation="http://www.topografix.com/GPX/1/1 http://www.topografix.com/GPX/1/1/gpx.xsd">
  <metadata>
    <name>Sunset Lake Triathlon</name>
  </metadata>
  <trk>
    <name>Sunset Lake Triathlon</name>
    <trkseg>
      <trkpt lat="39.444746" lon="-75.239548">
        <ele>12.068136</ele>
        <time>2024-06-22T08:08:03.000Z</time>
      </trkpt>
      <trkpt lat="39.444733" lon="-75.239624">
        <ele>12.068141</ele>
        <time>2024-06-22T08:08:04.000Z</time>
      </trkpt>
      <trkpt lat="39.444593" lon="-75.240358">
        <ele>12.068127</ele>
        <time>2024-06-22T08:08:10.000Z</time>
      </trkpt>
      <trkpt lat="39.444424" lon="-75.241555">
        <ele>13.330014</ele>
        <time>2024-06-22T08:08:20.000Z</time>
      </trkpt>
      <trkpt lat="39.444257" lon="-75.242966">
        <ele>15.346846</ele>
        <time>2024-06-22T08:08:32.000Z</time>
      </trkpt>
      <trkpt lat="39.444169" lon="-75.24362">
        <ele>15.812732</ele>
        <time>2024-06-22T08:08:38.000Z</time>
      </trkpt>
      <trkpt lat="39.443977" lon="-75.245209">
        <ele>16.869356</ele>
        <time>2024-06-22T08:08:52.000Z</time>
      </trkpt>
      <trkpt lat="39.443962" lon="-75.245499">
        <ele>16.693139</ele>
        <time>2024-06-22T08:08:54.000Z</time>
      </trkpt>
      <trkpt lat="39.44392" lon="-75.246273">
        <ele>15.863664</ele>
        <time>2024-06-22T08:09:01.000Z</time>
      </trkpt>
      <trkpt lat="39.445762" lon="-75.246252">
        <ele>12.845482</ele>
        <time>2024-06-22T08:09:21.000Z</time>
      </trkpt>
      <trkpt lat="39.446483" lon="-75.246203">
        <ele>11.405778</ele>
        <time>2024-06-22T08:09:29.000Z</time>
      </trkpt>
      <trkpt lat="39.446514" lon="-75.246391">
        <ele>11.117847</ele>
        <time>2024-06-22T08:09:31.000Z</time>
      </trkpt>
      <trkpt lat="39.446605" lon="-75.246607">
        <ele>10.868832</ele>
        <time>2024-06-22T08:09:33.000Z</time>
      </trkpt>
      <trkpt lat="39.446679" lon="-75.246733">
        <ele>10.833657</ele>
        <time>2024-06-22T08:09:34.000Z</time>
      </trkpt>
      <trkpt lat="39.446831" lon="-75.246888">
        <ele>10.77804</ele>
        <time>2024-06-22T08:09:36.000Z</time>
      </trkpt>
      <trkpt lat="39.447137" lon="-75.247062">
        <ele>10.686857</ele>
        <time>2024-06-22T08:09:40.000Z</time>
      </trkpt>
      <trkpt lat="39.44731" lon="-75.247191">
        <ele>10.632608</ele>
        <time>2024-06-22T08:09:42.000Z</time>
      </trkpt>
      <trkpt lat="39.447376" lon="-75.247369">
        <ele>10.588433</ele>
        <time>2024-06-22T08:09:44.000Z</time>
      </trkpt>
      <trkpt lat="39.447388" lon="-75.247584">
        <ele>10.539631</ele>
        <time>2024-06-22T08:09:46.000Z</time>
      </trkpt>
      <trkpt lat="39.44733" lon="-75.248059">
        <ele>10.436531</ele>
        <time>2024-06-22T08:09:50.000Z</time>
      </trkpt>
      <trkpt lat="39.447332" lon="-75.248449">
        <ele>10.489117</ele>
        <time>2024-06-22T08:09:53.000Z</time>
      </trkpt>
      <trkpt lat="39.447569" lon="-75.249579">
        <ele>11.287914</ele>
        <time>2024-06-22T08:10:03.000Z</time>
      </trkpt>
      <trkpt lat="39.448113" lon="-75.250661">
        <ele>12.122225</ele>
        <time>2024-06-22T08:10:14.000Z</time>
      </trkpt>
      <trkpt lat="39.448678" lon="-75.251683">
        <ele>12.755903</ele>
        <time>2024-06-22T08:10:25.000Z</time>
      </trkpt>
      <trkpt lat="39.448729" lon="-75.251836">
        <ele>12.845163</ele>
        <time>2024-06-22T08:10:26.000Z</time>
      </trkpt>
      <trkpt lat="39.448845" lon="-75.25227">
        <ele>13.082636</ele>
        <time>2024-06-22T08:10:30.000Z</time>
      </trkpt>
      <trkpt lat="39.448993" lon="-75.253258">
        <ele>13.27059</ele>
        <time>2024-06-22T08:10:39.000Z</time>
      </trkpt>
      <trkpt lat="39.449042" lon="-75.253407">
        <ele>13.291969</ele>
        <time>2024-06-22T08:10:40.000Z</time>
      </trkpt>
      <trkpt lat="39.449238" lon="-75.254026">
        <ele>13.375576</ele>
        <time>2024-06-22T08:10:46.000Z</time>
      </trkpt>
      <trkpt lat="39.44947" lon="-75.254781">
        <ele>13.505967</ele>
        <time>2024-06-22T08:10:53.000Z</time>
      </trkpt>
      <trkpt lat="39.449559" lon="-75.255434">
        <ele>13.689781</ele>
        <time>2024-06-22T08:10:59.000Z</time>
      </trkpt>
      <trkpt lat="39.449619" lon="-75.255768">
        <ele>13.79045</ele>
        <time>2024-06-22T08:11:02.000Z</time>
      </trkpt>
      <trkpt lat="39.449691" lon="-75.255982">
        <ele>13.85298</ele>
        <time>2024-06-22T08:11:04.000Z</time>
      </trkpt>
      <trkpt lat="39.450197" lon="-75.256707">
        <ele>14.160836</ele>
        <time>2024-06-22T08:11:12.000Z</time>
      </trkpt>
      <trkpt lat="39.450329" lon="-75.257009">
        <ele>14.475155</ele>
        <time>2024-06-22T08:11:15.000Z</time>
      </trkpt>
      <trkpt lat="39.450367" lon="-75.257153">
        <ele>14.629866</ele>
        <time>2024-06-22T08:11:16.000Z</time>
      </trkpt>
      <trkpt lat="39.450416" lon="-75.257432">
        <ele>14.892399</ele>
        <time>2024-06-22T08:11:18.000Z</time>
      </trkpt>
      <trkpt lat="39.450362" lon="-75.258318">
        <ele>15.729606</ele>
        <time>2024-06-22T08:11:26.000Z</time>
      </trkpt>
      <trkpt lat="39.450306" lon="-75.259025">
        <ele>16.444433</ele>
        <time>2024-06-22T08:11:32.000Z</time>
      </trkpt>
      <trkpt lat="39.453294" lon="-75.259217">
        <ele>22.188624</ele>
        <time>2024-06-22T08:12:05.000Z</time>
      </trkpt>
      <trkpt lat="39.45416" lon="-75.259273">
        <ele>23.836366</ele>
        <time>2024-06-22T08:12:15.000Z</time>
      </trkpt>
      <trkpt lat="39.455608" lon="-75.259377">
        <ele>26.463967</ele>
        <time>2024-06-22T08:12:31.000Z</time>
      </trkpt>
      <trkpt lat="39.455574" lon="-75.259828">
        <ele>27.134546</ele>
        <time>2024-06-22T08:12:35.000Z</time>
      </trkpt>
      <trkpt lat="39.455476" lon="-75.261087">
        <ele>29.086113</ele>
        <time>2024-06-22T08:12:46.000Z</time>
      </trkpt>
      <trkpt lat="39.455458" lon="-75.261145">
        <ele>29.152007</ele>
        <time>2024-06-22T08:12:47.000Z</time>
      </trkpt>
      <trkpt lat="39.455406" lon="-75.261934">
        <ele>30.14818</ele>
        <time>2024-06-22T08:12:54.000Z</time>
      </trkpt>
      <trkpt lat="39.455356" lon="-75.262549">
        <ele>30.409132</ele>
        <time>2024-06-22T08:12:59.000Z</time>
      </trkpt>
      <trkpt lat="39.455294" lon="-75.26327">
        <ele>30.720613</ele>
        <time>2024-06-22T08:13:05.000Z</time>
      </trkpt>
      <trkpt lat="39.455232" lon="-75.263884">
        <ele>30.985953</ele>
        <time>2024-06-22T08:13:10.000Z</time>
      </trkpt>
      <trkpt lat="39.45514" lon="-75.264955">
        <ele>30.938324</ele>
        <time>2024-06-22T08:13:19.000Z</time>
      </trkpt>
      <trkpt lat="39.455075" lon="-75.26551">
        <ele>30.86809</ele>
        <time>2024-06-22T08:13:24.000Z</time>
      </trkpt>
      <trkpt lat="39.454967" lon="-75.26662">
        <ele>30.802078</ele>
        <time>2024-06-22T08:13:34.000Z</time>
      </trkpt>
      <trkpt lat="39.454961" lon="-75.266847">
        <ele>30.841259</ele>
        <time>2024-06-22T08:13:36.000Z</time>
      </trkpt>
      <trkpt lat="39.454888" lon="-75.26766">
        <ele>30.975514</ele>
        <time>2024-06-22T08:13:43.000Z</time>
      </trkpt>
      <trkpt lat="39.454786" lon="-75.269145">
        <ele>31.083923</ele>
        <time>2024-06-22T08:13:56.000Z</time>
      </trkpt>
      <trkpt lat="39.454622" lon="-75.271158">
        <ele>30.696099</ele>
        <time>2024-06-22T08:14:13.000Z</time>
      </trkpt>
      <trkpt lat="39.45567" lon="-75.271144">
        <ele>29.497261</ele>
        <time>2024-06-22T08:14:25.000Z</time>
      </trkpt>
      <trkpt lat="39.457973" lon="-75.271036">
        <ele>24.993558</ele>
        <time>2024-06-22T08:14:51.000Z</time>
      </trkpt>
      <trkpt lat="39.458509" lon="-75.271012">
        <ele>24.138385</ele>
        <time>2024-06-22T08:14:57.000Z</time>
      </trkpt>
      <trkpt lat="39.458781" lon="-75.270996">
        <ele>23.796948</ele>
        <time>2024-06-22T08:15:00.000Z</time>
      </trkpt>
      <trkpt lat="39.459168" lon="-75.270978">
        <ele>23.276717</ele>
        <time>2024-06-22T08:15:04.000Z</time>
      </trkpt>
      <trkpt lat="39.459815" lon="-75.270927">
        <ele>22.416346</ele>
        <time>2024-06-22T08:15:11.000Z</time>
      </trkpt>
      <trkpt lat="39.46387" lon="-75.270764">
        <ele>29.123709</ele>
        <time>2024-06-22T08:15:56.000Z</time>
      </trkpt>
      <trkpt lat="39.464841" lon="-75.270759">
        <ele>30.549937</ele>
        <time>2024-06-22T08:16:07.000Z</time>
      </trkpt>
      <trkpt lat="39.465694" lon="-75.271026">
        <ele>30.989992</ele>
        <time>2024-06-22T08:16:17.000Z</time>
      </trkpt>
      <trkpt lat="39.467411" lon="-75.2716">
        <ele>29.923207</ele>
        <time>2024-06-22T08:16:37.000Z</time>
      </trkpt>
      <trkpt lat="39.4698" lon="-75.272578">
        <ele>27.165976</ele>
        <time>2024-06-22T08:17:05.000Z</time>
      </trkpt>
      <trkpt lat="39.470045" lon="-75.272668">
        <ele>26.890324</ele>
        <time>2024-06-22T08:17:08.000Z</time>
      </trkpt>
      <trkpt lat="39.470412" lon="-75.272833">
        <ele>26.448618</ele>
        <time>2024-06-22T08:17:12.000Z</time>
      </trkpt>
      <trkpt lat="39.471302" lon="-75.27317">
        <ele>25.178409</ele>
        <time>2024-06-22T08:17:22.000Z</time>
      </trkpt>
      <trkpt lat="39.472281" lon="-75.273458">
        <ele>23.823635</ele>
        <time>2024-06-22T08:17:33.000Z</time>
      </trkpt>
      <trkpt lat="39.473026" lon="-75.273602">
        <ele>23.22078</ele>
        <time>2024-06-22T08:17:41.000Z</time>
      </trkpt>
      <trkpt lat="39.473146" lon="-75.273622">
        <ele>23.112571</ele>
        <time>2024-06-22T08:17:42.000Z</time>
      </trkpt>
      <trkpt lat="39.473311" lon="-75.273658">
        <ele>22.981266</ele>
        <time>2024-06-22T08:17:44.000Z</time>
      </trkpt>
      <trkpt lat="39.474399" lon="-75.273735">
        <ele>22.961394</ele>
        <time>2024-06-22T08:17:56.000Z</time>
      </trkpt>
      <trkpt lat="39.474957" lon="-75.27373">
        <ele>23.61375</ele>
        <time>2024-06-22T08:18:02.000Z</time>
      </trkpt>
      <trkpt lat="39.478652" lon="-75.273371">
        <ele>29.236588</ele>
        <time>2024-06-22T08:18:43.000Z</time>
      </trkpt>
      <trkpt lat="39.478845" lon="-75.273319">
        <ele>29.492095</ele>
        <time>2024-06-22T08:18:45.000Z</time>
      </trkpt>
      <trkpt lat="39.478935" lon="-75.273238">
        <ele>29.628974</ele>
        <time>2024-06-22T08:18:46.000Z</time>
      </trkpt>
      <trkpt lat="39.479145" lon="-75.273298">
        <ele>29.909722</ele>
        <time>2024-06-22T08:18:48.000Z</time>
      </trkpt>
      <trkpt lat="39.480154" lon="-75.273379">
        <ele>30.029816</ele>
        <time>2024-06-22T08:18:59.000Z</time>
      </trkpt>
      <trkpt lat="39.480734" lon="-75.273434">
        <ele>29.949601</ele>
        <time>2024-06-22T08:19:05.000Z</time>
      </trkpt>
      <trkpt lat="39.480928" lon="-75.273517">
        <ele>29.923078</ele>
        <time>2024-06-22T08:19:07.000Z</time>
      </trkpt>
      <trkpt lat="39.481154" lon="-75.273714">
        <ele>29.850699</ele>
        <time>2024-06-22T08:19:10.000Z</time>
      </trkpt>
      <trkpt lat="39.482534" lon="-75.275182">
        <ele>28.956163</ele>
        <time>2024-06-22T08:19:30.000Z</time>
      </trkpt>
      <trkpt lat="39.483888" lon="-75.273035">
        <ele>28.279449</ele>
        <time>2024-06-22T08:19:54.000Z</time>
      </trkpt>
      <trkpt lat="39.484006" lon="-75.272849">
        <ele>28.222637</ele>
        <time>2024-06-22T08:19:56.000Z</time>
      </trkpt>
      <trkpt lat="39.484507" lon="-75.272111">
        <ele>27.993975</ele>
        <time>2024-06-22T08:20:04.000Z</time>
      </trkpt>
      <trkpt lat="39.48487" lon="-75.271736">
        <ele>27.86117</ele>
        <time>2024-06-22T08:20:09.000Z</time>
      </trkpt>
      <trkpt lat="39.485446" lon="-75.272901">
        <ele>27.78179</ele>
        <time>2024-06-22T08:20:21.000Z</time>
      </trkpt>
      <trkpt lat="39.485552" lon="-75.273134">
        <ele>27.766058</ele>
        <time>2024-06-22T08:20:23.000Z</time>
      </trkpt>
      <trkpt lat="39.485572" lon="-75.273196">
        <ele>27.761965</ele>
        <time>2024-06-22T08:20:24.000Z</time>
      </trkpt>
      <trkpt lat="39.486218" lon="-75.274548">
        <ele>27.888363</ele>
        <time>2024-06-22T08:20:38.000Z</time>
      </trkpt>
      <trkpt lat="39.486996" lon="-75.276018">
        <ele>27.944694</ele>
        <time>2024-06-22T08:20:53.000Z</time>
      </trkpt>
      <trkpt lat="39.487286" lon="-75.276582">
        <ele>27.716184</ele>
        <time>2024-06-22T08:20:59.000Z</time>
      </trkpt>
      <trkpt lat="39.487648" lon="-75.277344">
        <ele>27.405202</ele>
        <time>2024-06-22T08:21:07.000Z</time>
      </trkpt>
      <trkpt lat="39.488519" lon="-75.279316">
        <ele>26.154949</ele>
        <time>2024-06-22T08:21:26.000Z</time>
      </trkpt>
      <trkpt lat="39.488679" lon="-75.279601">
        <ele>25.956764</ele>
        <time>2024-06-22T08:21:29.000Z</time>
      </trkpt>
      <trkpt lat="39.488847" lon="-75.279861">
        <ele>26.280572</ele>
        <time>2024-06-22T08:21:32.000Z</time>
      </trkpt>
      <trkpt lat="39.488999" lon="-75.280016">
        <ele>26.509071</ele>
        <time>2024-06-22T08:21:34.000Z</time>
      </trkpt>
      <trkpt lat="39.489365" lon="-75.280345">
        <ele>27.081772</ele>
        <time>2024-06-22T08:21:39.000Z</time>
      </trkpt>
      <trkpt lat="39.489672" lon="-75.280553">
        <ele>27.510875</ele>
        <time>2024-06-22T08:21:43.000Z</time>
      </trkpt>
      <trkpt lat="39.491111" lon="-75.281431">
        <ele>29.407534</ele>
        <time>2024-06-22T08:22:01.000Z</time>
      </trkpt>
      <trkpt lat="39.491832" lon="-75.281889">
        <ele>30.282882</ele>
        <time>2024-06-22T08:22:10.000Z</time>
      </trkpt>
      <trkpt lat="39.492168" lon="-75.282107">
        <ele>30.256158</ele>
        <time>2024-06-22T08:22:14.000Z</time>
      </trkpt>
      <trkpt lat="39.492867" lon="-75.282556">
        <ele>30.200337</ele>
        <time>2024-06-22T08:22:23.000Z</time>
      </trkpt>
      <trkpt lat="39.493982" lon="-75.283279">
        <ele>30.219617</ele>
        <time>2024-06-22T08:22:37.000Z</time>
      </trkpt>
      <trkpt lat="39.494268" lon="-75.283534">
        <ele>30.252519</ele>
        <time>2024-06-22T08:22:41.000Z</time>
      </trkpt>
      <trkpt lat="39.494364" lon="-75.283637">
        <ele>30.263605</ele>
        <time>2024-06-22T08:22:42.000Z</time>
      </trkpt>
      <trkpt lat="39.495239" lon="-75.28466">
        <ele>30.553216</ele>
        <time>2024-06-22T08:22:55.000Z</time>
      </trkpt>
      <trkpt lat="39.495728" lon="-75.285073">
        <ele>30.817738</ele>
        <time>2024-06-22T08:23:01.000Z</time>
      </trkpt>
      <trkpt lat="39.496019" lon="-75.28528">
        <ele>30.96604</ele>
        <time>2024-06-22T08:23:05.000Z</time>
      </trkpt>
      <trkpt lat="39.496797" lon="-75.285816">
        <ele>31.69075</ele>
        <time>2024-06-22T08:23:15.000Z</time>
      </trkpt>
      <trkpt lat="39.497636" lon="-75.286295">
        <ele>32.689193</ele>
        <time>2024-06-22T08:23:25.000Z</time>
      </trkpt>
      <trkpt lat="39.497836" lon="-75.28638">
        <ele>32.91383</ele>
        <time>2024-06-22T08:23:27.000Z</time>
      </trkpt>
      <trkpt lat="39.498306" lon="-75.286538">
        <ele>33.448728</ele>
        <time>2024-06-22T08:23:32.000Z</time>
      </trkpt>
      <trkpt lat="39.499262" lon="-75.286651">
        <ele>34.529787</ele>
        <time>2024-06-22T08:23:43.000Z</time>
      </trkpt>
      <trkpt lat="39.499772" lon="-75.286694">
        <ele>35.094452</ele>
        <time>2024-06-22T08:23:49.000Z</time>
      </trkpt>
      <trkpt lat="39.499834" lon="-75.287498">
        <ele>35.456712</ele>
        <time>2024-06-22T08:23:56.000Z</time>
      </trkpt>
      <trkpt lat="39.499909" lon="-75.288685">
        <ele>35.95174</ele>
        <time>2024-06-22T08:24:06.000Z</time>
      </trkpt>
      <trkpt lat="39.500635" lon="-75.288792">
        <ele>36.52407</ele>
        <time>2024-06-22T08:24:14.000Z</time>
      </trkpt>
      <trkpt lat="39.503103" lon="-75.289113">
        <ele>38.804524</ele>
        <time>2024-06-22T08:24:42.000Z</time>
      </trkpt>
      <trkpt lat="39.503359" lon="-75.289148">
        <ele>39.039636</ele>
        <time>2024-06-22T08:24:45.000Z</time>
      </trkpt>
      <trkpt lat="39.50393" lon="-75.289182">
        <ele>39.442142</ele>
        <time>2024-06-22T08:24:51.000Z</time>
      </trkpt>
      <trkpt lat="39.504637" lon="-75.289261">
        <ele>39.573456</ele>
        <time>2024-06-22T08:24:59.000Z</time>
      </trkpt>
      <trkpt lat="39.505604" lon="-75.289346">
        <ele>39.730436</ele>
        <time>2024-06-22T08:25:10.000Z</time>
      </trkpt>
      <trkpt lat="39.509974" lon="-75.289739">
        <ele>36.868655</ele>
        <time>2024-06-22T08:25:59.000Z</time>
      </trkpt>
      <trkpt lat="39.511746" lon="-75.289917">
        <ele>35.382194</ele>
        <time>2024-06-22T08:26:19.000Z</time>
      </trkpt>
      <trkpt lat="39.511872" lon="-75.28985">
        <ele>35.297895</ele>
        <time>2024-06-22T08:26:21.000Z</time>
      </trkpt>
      <trkpt lat="39.512581" lon="-75.286386">
        <ele>35.193986</ele>
        <time>2024-06-22T08:26:52.000Z</time>
      </trkpt>
      <trkpt lat="39.51273" lon="-75.285739">
        <ele>35.43236</ele>
        <time>2024-06-22T08:26:58.000Z</time>
      </trkpt>
      <trkpt lat="39.513403" lon="-75.282602">
        <ele>36.291584</ele>
        <time>2024-06-22T08:27:26.000Z</time>
      </trkpt>
      <trkpt lat="39.513428" lon="-75.282426">
        <ele>36.326709</ele>
        <time>2024-06-22T08:27:28.000Z</time>
      </trkpt>
      <trkpt lat="39.513465" lon="-75.282332">
        <ele>36.345705</ele>
        <time>2024-06-22T08:27:29.000Z</time>
      </trkpt>
      <trkpt lat="39.514219" lon="-75.278796">
        <ele>34.888732</ele>
        <time>2024-06-22T08:28:00.000Z</time>
      </trkpt>
      <trkpt lat="39.514835" lon="-75.275919">
        <ele>32.683851</ele>
        <time>2024-06-22T08:28:26.000Z</time>
      </trkpt>
      <trkpt lat="39.511742" lon="-75.275571">
        <ele>32.089912</ele>
        <time>2024-06-22T08:29:01.000Z</time>
      </trkpt>
      <trkpt lat="39.511518" lon="-75.275541">
        <ele>32.023577</ele>
        <time>2024-06-22T08:29:04.000Z</time>
      </trkpt>
      <trkpt lat="39.511433" lon="-75.275504">
        <ele>31.996877</ele>
        <time>2024-06-22T08:29:05.000Z</time>
      </trkpt>
      <trkpt lat="39.51126" lon="-75.275343">
        <ele>31.936189</ele>
        <time>2024-06-22T08:29:07.000Z</time>
      </trkpt>
      <trkpt lat="39.511144" lon="-75.275161">
        <ele>31.885743</ele>
        <time>2024-06-22T08:29:09.000Z</time>
      </trkpt>
      <trkpt lat="39.510459" lon="-75.273707">
        <ele>31.198128</ele>
        <time>2024-06-22T08:29:24.000Z</time>
      </trkpt>
      <trkpt lat="39.510253" lon="-75.273279">
        <ele>30.960799</ele>
        <time>2024-06-22T08:29:28.000Z</time>
      </trkpt>
      <trkpt lat="39.509923" lon="-75.272575">
        <ele>30.529614</ele>
        <time>2024-06-22T08:29:35.000Z</time>
      </trkpt>
      <trkpt lat="39.509055" lon="-75.271236">
        <ele>29.41363</ele>
        <time>2024-06-22T08:29:50.000Z</time>
      </trkpt>
      <trkpt lat="39.508733" lon="-75.270788">
        <ele>29.082216</ele>
        <time>2024-06-22T08:29:55.000Z</time>
      </trkpt>
      <trkpt lat="39.508581" lon="-75.270664">
        <ele>28.981203</ele>
        <time>2024-06-22T08:29:57.000Z</time>
      </trkpt>
      <trkpt lat="39.508503" lon="-75.270644">
        <ele>28.927315</ele>
        <time>2024-06-22T08:29:58.000Z</time>
      </trkpt>
      <trkpt lat="39.507703" lon="-75.270595">
        <ele>28.44948</ele>
        <time>2024-06-22T08:30:07.000Z</time>
      </trkpt>
      <trkpt lat="39.503933" lon="-75.270387">
        <ele>30.08834</ele>
        <time>2024-06-22T08:30:49.000Z</time>
      </trkpt>
      <trkpt lat="39.503241" lon="-75.27036">
        <ele>30.283429</ele>
        <time>2024-06-22T08:30:57.000Z</time>
      </trkpt>
      <trkpt lat="39.500758" lon="-75.270246">
        <ele>29.772297</ele>
        <time>2024-06-22T08:31:25.000Z</time>
      </trkpt>
      <trkpt lat="39.500061" lon="-75.270269">
        <ele>29.39553</ele>
        <time>2024-06-22T08:31:33.000Z</time>
      </trkpt>
      <trkpt lat="39.4977" lon="-75.270457">
        <ele>28.457772</ele>
        <time>2024-06-22T08:31:59.000Z</time>
      </trkpt>
      <trkpt lat="39.49609" lon="-75.270619">
        <ele>29.788144</ele>
        <time>2024-06-22T08:32:17.000Z</time>
      </trkpt>
      <trkpt lat="39.495309" lon="-75.27069">
        <ele>30.126547</ele>
        <time>2024-06-22T08:32:26.000Z</time>
      </trkpt>
      <trkpt lat="39.494585" lon="-75.270741">
        <ele>30.220699</ele>
        <time>2024-06-22T08:32:34.000Z</time>
      </trkpt>
      <trkpt lat="39.493657" lon="-75.270814">
        <ele>28.286707</ele>
        <time>2024-06-22T08:32:44.000Z</time>
      </trkpt>
      <trkpt lat="39.493222" lon="-75.270864">
        <ele>27.34937</ele>
        <time>2024-06-22T08:32:49.000Z</time>
      </trkpt>
      <trkpt lat="39.492755" lon="-75.270911">
        <ele>26.353399</ele>
        <time>2024-06-22T08:32:54.000Z</time>
      </trkpt>
      <trkpt lat="39.492315" lon="-75.270935">
        <ele>25.363444</ele>
        <time>2024-06-22T08:32:59.000Z</time>
      </trkpt>
      <trkpt lat="39.491653" lon="-75.271004">
        <ele>23.876317</ele>
        <time>2024-06-22T08:33:06.000Z</time>
      </trkpt>
      <trkpt lat="39.491306" lon="-75.271017">
        <ele>23.130312</ele>
        <time>2024-06-22T08:33:10.000Z</time>
      </trkpt>
      <trkpt lat="39.489967" lon="-75.271137">
        <ele>21.058953</ele>
        <time>2024-06-22T08:33:25.000Z</time>
      </trkpt>
      <trkpt lat="39.489838" lon="-75.271179">
        <ele>20.880334</ele>
        <time>2024-06-22T08:33:26.000Z</time>
      </trkpt>
      <trkpt lat="39.488268" lon="-75.268613">
        <ele>19.176254</ele>
        <time>2024-06-22T08:33:54.000Z</time>
      </trkpt>
      <trkpt lat="39.48772" lon="-75.267733">
        <ele>20.186748</ele>
        <time>2024-06-22T08:34:04.000Z</time>
      </trkpt>
      <trkpt lat="39.487471" lon="-75.268177">
        <ele>20.668082</ele>
        <time>2024-06-22T08:34:09.000Z</time>
      </trkpt>
      <trkpt lat="39.487373" lon="-75.26862">
        <ele>21.112147</ele>
        <time>2024-06-22T08:34:13.000Z</time>
      </trkpt>
      <trkpt lat="39.487265" lon="-75.268932">
        <ele>21.663101</ele>
        <time>2024-06-22T08:34:16.000Z</time>
      </trkpt>
      <trkpt lat="39.486933" lon="-75.26963">
        <ele>22.995183</ele>
        <time>2024-06-22T08:34:23.000Z</time>
      </trkpt>
      <trkpt lat="39.486679" lon="-75.270074">
        <ele>23.917712</ele>
        <time>2024-06-22T08:34:28.000Z</time>
      </trkpt>
      <trkpt lat="39.486347" lon="-75.270462">
        <ele>24.819123</ele>
        <time>2024-06-22T08:34:33.000Z</time>
      </trkpt>
      <trkpt lat="39.486223" lon="-75.270568">
        <ele>25.023099</ele>
        <time>2024-06-22T08:34:35.000Z</time>
      </trkpt>
      <trkpt lat="39.48609" lon="-75.270693">
        <ele>25.204925</ele>
        <time>2024-06-22T08:34:37.000Z</time>
      </trkpt>
      <trkpt lat="39.485669" lon="-75.271056">
        <ele>25.787329</ele>
        <time>2024-06-22T08:34:43.000Z</time>
      </trkpt>
      <trkpt lat="39.485453" lon="-75.271242">
        <ele>26.091951</ele>
        <time>2024-06-22T08:34:46.000Z</time>
      </trkpt>
      <trkpt lat="39.484871" lon="-75.27175">
        <ele>26.900975</ele>
        <time>2024-06-22T08:34:54.000Z</time>
      </trkpt>
      <trkpt lat="39.484514" lon="-75.27211">
        <ele>27.279555</ele>
        <time>2024-06-22T08:34:59.000Z</time>
      </trkpt>
      <trkpt lat="39.484001" lon="-75.272843">
        <ele>27.886606</ele>
        <time>2024-06-22T08:35:07.000Z</time>
      </trkpt>
      <trkpt lat="39.483885" lon="-75.273029">
        <ele>28.037433</ele>
        <time>2024-06-22T08:35:09.000Z</time>
      </trkpt>
      <trkpt lat="39.482543" lon="-75.275177">
        <ele>28.954612</ele>
        <time>2024-06-22T08:35:33.000Z</time>
      </trkpt>
      <trkpt lat="39.481148" lon="-75.273714">
        <ele>29.850727</ele>
        <time>2024-06-22T08:35:53.000Z</time>
      </trkpt>
      <trkpt lat="39.480937" lon="-75.273515">
        <ele>29.92345</ele>
        <time>2024-06-22T08:35:56.000Z</time>
      </trkpt>
      <trkpt lat="39.480742" lon="-75.273431">
        <ele>29.949817</ele>
        <time>2024-06-22T08:35:58.000Z</time>
      </trkpt>
      <trkpt lat="39.480152" lon="-75.273382">
        <ele>30.029633</ele>
        <time>2024-06-22T08:36:05.000Z</time>
      </trkpt>
      <trkpt lat="39.479137" lon="-75.273291">
        <ele>29.910468</ele>
        <time>2024-06-22T08:36:16.000Z</time>
      </trkpt>
      <trkpt lat="39.478938" lon="-75.273235">
        <ele>29.629545</ele>
        <time>2024-06-22T08:36:18.000Z</time>
      </trkpt>
      <trkpt lat="39.478849" lon="-75.273316">
        <ele>29.492589</ele>
        <time>2024-06-22T08:36:19.000Z</time>
      </trkpt>
      <trkpt lat="39.478664" lon="-75.273364">
        <ele>29.236915</ele>
        <time>2024-06-22T08:36:21.000Z</time>
      </trkpt>
      <trkpt lat="39.474953" lon="-75.273738">
        <ele>23.613852</ele>
        <time>2024-06-22T08:37:02.000Z</time>
      </trkpt>
      <trkpt lat="39.474399" lon="-75.273732">
        <ele>22.962052</ele>
        <time>2024-06-22T08:37:08.000Z</time>
      </trkpt>
      <trkpt lat="39.473317" lon="-75.273663">
        <ele>22.980824</ele>
        <time>2024-06-22T08:37:20.000Z</time>
      </trkpt>
      <trkpt lat="39.473164" lon="-75.273624">
        <ele>23.11231</ele>
        <time>2024-06-22T08:37:22.000Z</time>
      </trkpt>
      <trkpt lat="39.473025" lon="-75.273601">
        <ele>23.220677</ele>
        <time>2024-06-22T08:37:24.000Z</time>
      </trkpt>
      <trkpt lat="39.472293" lon="-75.273459">
        <ele>23.824406</ele>
        <time>2024-06-22T08:37:32.000Z</time>
      </trkpt>
      <trkpt lat="39.471301" lon="-75.273169">
        <ele>25.178339</ele>
        <time>2024-06-22T08:37:43.000Z</time>
      </trkpt>
      <trkpt lat="39.470414" lon="-75.27283">
        <ele>26.448618</ele>
        <time>2024-06-22T08:37:53.000Z</time>
      </trkpt>
      <trkpt lat="39.470028" lon="-75.272667">
        <ele>26.890332</ele>
        <time>2024-06-22T08:37:58.000Z</time>
      </trkpt>
      <trkpt lat="39.469794" lon="-75.272574">
        <ele>27.166004</ele>
        <time>2024-06-22T08:38:01.000Z</time>
      </trkpt>
      <trkpt lat="39.467416" lon="-75.271598">
        <ele>29.923138</ele>
        <time>2024-06-22T08:38:29.000Z</time>
      </trkpt>
      <trkpt lat="39.465696" lon="-75.271019">
        <ele>30.989239</ele>
        <time>2024-06-22T08:38:49.000Z</time>
      </trkpt>
      <trkpt lat="39.464853" lon="-75.270747">
        <ele>30.550605</ele>
        <time>2024-06-22T08:38:59.000Z</time>
      </trkpt>
      <trkpt lat="39.463878" lon="-75.270773">
        <ele>29.123592</ele>
        <time>2024-06-22T08:39:10.000Z</time>
      </trkpt>
      <trkpt lat="39.459814" lon="-75.270935">
        <ele>22.41438</ele>
        <time>2024-06-22T08:39:55.000Z</time>
      </trkpt>
      <trkpt lat="39.459168" lon="-75.270971">
        <ele>23.275928</ele>
        <time>2024-06-22T08:40:02.000Z</time>
      </trkpt>
      <trkpt lat="39.458771" lon="-75.270997">
        <ele>23.796882</ele>
        <time>2024-06-22T08:40:06.000Z</time>
      </trkpt>
      <trkpt lat="39.458524" lon="-75.271008">
        <ele>24.138779</ele>
        <time>2024-06-22T08:40:09.000Z</time>
      </trkpt>
      <trkpt lat="39.457965" lon="-75.271031">
        <ele>24.993611</ele>
        <time>2024-06-22T08:40:15.000Z</time>
      </trkpt>
      <trkpt lat="39.455682" lon="-75.271146">
        <ele>29.497596</ele>
        <time>2024-06-22T08:40:40.000Z</time>
      </trkpt>
      <trkpt lat="39.454635" lon="-75.271161">
        <ele>30.695343</ele>
        <time>2024-06-22T08:40:52.000Z</time>
      </trkpt>
      <trkpt lat="39.454772" lon="-75.269136">
        <ele>31.083793</ele>
        <time>2024-06-22T08:41:09.000Z</time>
      </trkpt>
      <trkpt lat="39.454883" lon="-75.267652">
        <ele>30.975691</ele>
        <time>2024-06-22T08:41:22.000Z</time>
      </trkpt>
      <trkpt lat="39.454947" lon="-75.266841">
        <ele>30.841405</ele>
        <time>2024-06-22T08:41:29.000Z</time>
      </trkpt>
      <trkpt lat="39.454966" lon="-75.266609">
        <ele>30.802224</ele>
        <time>2024-06-22T08:41:31.000Z</time>
      </trkpt>
      <trkpt lat="39.45508" lon="-75.265501">
        <ele>30.867879</ele>
        <time>2024-06-22T08:41:41.000Z</time>
      </trkpt>
      <trkpt lat="39.455139" lon="-75.264953">
        <ele>30.938183</ele>
        <time>2024-06-22T08:41:46.000Z</time>
      </trkpt>
      <trkpt lat="39.455233" lon="-75.263874">
        <ele>30.98665</ele>
        <time>2024-06-22T08:41:55.000Z</time>
      </trkpt>
      <trkpt lat="39.455295" lon="-75.263262">
        <ele>30.720762</ele>
        <time>2024-06-22T08:42:00.000Z</time>
      </trkpt>
      <trkpt lat="39.455357" lon="-75.262551">
        <ele>30.408675</ele>
        <time>2024-06-22T08:42:06.000Z</time>
      </trkpt>
      <trkpt lat="39.455392" lon="-75.261948">
        <ele>30.147189</ele>
        <time>2024-06-22T08:42:11.000Z</time>
      </trkpt>
      <trkpt lat="39.455463" lon="-75.261132">
        <ele>29.152376</ele>
        <time>2024-06-22T08:42:18.000Z</time>
      </trkpt>
      <trkpt lat="39.455472" lon="-75.261087">
        <ele>29.086468</ele>
        <time>2024-06-22T08:42:18.000Z</time>
      </trkpt>
      <trkpt lat="39.455562" lon="-75.259821">
        <ele>27.134651</ele>
        <time>2024-06-22T08:42:29.000Z</time>
      </trkpt>
      <trkpt lat="39.455608" lon="-75.259391">
        <ele>26.463823</ele>
        <time>2024-06-22T08:42:33.000Z</time>
      </trkpt>
      <trkpt lat="39.454168" lon="-75.259288">
        <ele>23.836363</ele>
        <time>2024-06-22T08:42:49.000Z</time>
      </trkpt>
      <trkpt lat="39.453298" lon="-75.259233">
        <ele>22.188697</ele>
        <time>2024-06-22T08:42:59.000Z</time>
      </trkpt>
      <trkpt lat="39.450306" lon="-75.259033">
        <ele>16.44471</ele>
        <time>2024-06-22T08:43:32.000Z</time>
      </trkpt>
      <trkpt lat="39.450372" lon="-75.258334">
        <ele>15.729336</ele>
        <time>2024-06-22T08:43:38.000Z</time>
      </trkpt>
      <trkpt lat="39.450404" lon="-75.257443">
        <ele>14.892518</ele>
        <time>2024-06-22T08:43:46.000Z</time>
      </trkpt>
      <trkpt lat="39.450385" lon="-75.257148">
        <ele>14.630094</ele>
        <time>2024-06-22T08:43:49.000Z</time>
      </trkpt>
      <trkpt lat="39.450338" lon="-75.256996">
        <ele>14.475485</ele>
        <time>2024-06-22T08:43:50.000Z</time>
      </trkpt>
      <trkpt lat="39.450207" lon="-75.256712">
        <ele>14.161316</ele>
        <time>2024-06-22T08:43:53.000Z</time>
      </trkpt>
      <trkpt lat="39.449698" lon="-75.25598">
        <ele>13.852831</ele>
        <time>2024-06-22T08:44:01.000Z</time>
      </trkpt>
      <trkpt lat="39.449625" lon="-75.255768">
        <ele>13.790389</ele>
        <time>2024-06-22T08:44:03.000Z</time>
      </trkpt>
      <trkpt lat="39.44956" lon="-75.255421">
        <ele>13.689838</ele>
        <time>2024-06-22T08:44:06.000Z</time>
      </trkpt>
      <trkpt lat="39.449476" lon="-75.254796">
        <ele>13.506275</ele>
        <time>2024-06-22T08:44:11.000Z</time>
      </trkpt>
      <trkpt lat="39.44923" lon="-75.254009">
        <ele>13.375617</ele>
        <time>2024-06-22T08:44:18.000Z</time>
      </trkpt>
      <trkpt lat="39.449048" lon="-75.253411">
        <ele>13.291916</ele>
        <time>2024-06-22T08:44:24.000Z</time>
      </trkpt>
      <trkpt lat="39.449001" lon="-75.253244">
        <ele>13.270521</ele>
        <time>2024-06-22T08:44:26.000Z</time>
      </trkpt>
      <trkpt lat="39.448843" lon="-75.252276">
        <ele>13.082964</ele>
        <time>2024-06-22T08:44:34.000Z</time>
      </trkpt>
      <trkpt lat="39.448739" lon="-75.251827">
        <ele>12.845331</ele>
        <time>2024-06-22T08:44:38.000Z</time>
      </trkpt>
      <trkpt lat="39.448669" lon="-75.251676">
        <ele>12.75602</ele>
        <time>2024-06-22T08:44:40.000Z</time>
      </trkpt>
      <trkpt lat="39.448096" lon="-75.250663">
        <ele>12.121924</ele>
        <time>2024-06-22T08:44:51.000Z</time>
      </trkpt>
      <trkpt lat="39.447569" lon="-75.249577">
        <ele>11.287942</ele>
        <time>2024-06-22T08:45:02.000Z</time>
      </trkpt>
      <trkpt lat="39.447329" lon="-75.248451">
        <ele>10.489357</ele>
        <time>2024-06-22T08:45:12.000Z</time>
      </trkpt>
      <trkpt lat="39.447323" lon="-75.24806">
        <ele>10.435663</ele>
        <time>2024-06-22T08:45:15.000Z</time>
      </trkpt>
      <trkpt lat="39.447381" lon="-75.247591">
        <ele>10.53928</ele>
        <time>2024-06-22T08:45:19.000Z</time>
      </trkpt>
      <trkpt lat="39.447383" lon="-75.247362">
        <ele>10.588322</ele>
        <time>2024-06-22T08:45:21.000Z</time>
      </trkpt>
      <trkpt lat="39.447308" lon="-75.247181">
        <ele>10.632716</ele>
        <time>2024-06-22T08:45:23.000Z</time>
      </trkpt>
      <trkpt lat="39.447128" lon="-75.247053">
        <ele>10.687236</ele>
        <time>2024-06-22T08:45:25.000Z</time>
      </trkpt>
      <trkpt lat="39.446845" lon="-75.246895">
        <ele>10.778864</ele>
        <time>2024-06-22T08:45:28.000Z</time>
      </trkpt>
      <trkpt lat="39.446673" lon="-75.246731">
        <ele>10.834762</ele>
        <time>2024-06-22T08:45:30.000Z</time>
      </trkpt>
      <trkpt lat="39.446609" lon="-75.246598">
        <ele>10.870127</ele>
        <time>2024-06-22T08:45:31.000Z</time>
      </trkpt>
      <trkpt lat="39.446517" lon="-75.246387">
        <ele>11.117309</ele>
        <time>2024-06-22T08:45:33.000Z</time>
      </trkpt>
      <trkpt lat="39.446476" lon="-75.246199">
        <ele>11.4053</ele>
        <time>2024-06-22T08:45:35.000Z</time>
      </trkpt>
      <trkpt lat="39.445751" lon="-75.246241">
        <ele>12.845388</ele>
        <time>2024-06-22T08:45:43.000Z</time>
      </trkpt>
      <trkpt lat="39.443914" lon="-75.246287">
        <ele>15.863177</ele>
        <time>2024-06-22T08:46:03.000Z</time>
      </trkpt>
      <trkpt lat="39.443949" lon="-75.245504">
        <ele>16.69175</ele>
        <time>2024-06-22T08:46:10.000Z</time>
      </trkpt>
      <trkpt lat="39.443974" lon="-75.245221">
        <ele>16.87027</ele>
        <time>2024-06-22T08:46:12.000Z</time>
      </trkpt>
      <trkpt lat="39.444171" lon="-75.243619">
        <ele>15.812554</ele>
        <time>2024-06-22T08:46:26.000Z</time>
      </trkpt>
      <trkpt lat="39.444248" lon="-75.242957">
        <ele>15.347383</ele>
        <time>2024-06-22T08:46:32.000Z</time>
      </trkpt>
      <trkpt lat="39.444427" lon="-75.241556">
        <ele>13.330002</ele>
        <time>2024-06-22T08:46:44.000Z</time>
      </trkpt>
      <trkpt lat="39.444581" lon="-75.240364">
        <ele>11.8245154738</ele>
        <time>2024-06-22T08:46:54.000Z</time>
      </trkpt>
      <trkpt lat="39.444719" lon="-75.239624">
        <ele>10.8762170531</ele>
        <time>2024-06-22T08:47:01.000Z</time>
      </trkpt>
      <trkpt lat="39.444744" lon="-75.23955">
        <ele>10.7756019161</ele>
        <time>2024-06-22T08:47:02.000Z</time>
      </trkpt>
      <trkpt lat="39.444749" lon="-75.239543">
        <ele>10.7637240477</ele>
        <time>2024-06-22T08:47:02.000Z</time>
      </trkpt>
    </trkseg>
  </trk>
</gpx>

<!--
Performance optimized by W3 Total Cache. Learn more: https://www.boldgrid.com/w3-total-cache/?utm_source=w3tc&utm_medium=footer_comment&utm_campaign=free_plugin

Page Caching using Disk: Enhanced{w3tc_pagecache_reject_reason} 

Served from: www.aquabike.world @ 2026-05-10 17:44:12 by W3 Total Cache
-->